VKG1649 LGRP-ESSA
Flight info
| Callsign | VKG1649 |
|---|---|
| Flight time | N/A |
| Altitude | 38000 |
| Route | VANES M601 ETERU UM601 ADESO UN133 RIGRO DCT STINO DCT ATFIR N133 USALI DCT LOMOS DCT OVDOT DCT BUXLE DCT MEGIK DCT NARKA DCT KSC DCT KOJOT DCT RAZEC DCT LENOV DCT ORTEB DCT OVBOR DCT NUBLI/N0466F400 DCT ADOXO DCT BIBKA DCT IRLUN N133 PENOR DCT ARMOD/N0456F390 Z228 NILUG |
| Aircraft | A339/H-SDE1E2E3GHIJ1J3J4J5RWXYZ/LB2D1G1 |
Departure
| Time | 2026-05-08 06:38 |
|---|---|
| Airport | Rhodes International Airport "Diagoras" (LGRP) |
Arrival
| Time | N/A |
|---|---|
| Airport | Stockholm-Arlanda Airport (ESSA) |
| Time | Latitude | Longitude | Altitude | Speed | Heading |
|---|---|---|---|---|---|
| 2026-05-08 05:33 | 36.40299 | 28.08882 | 32 ft | 0 kts | 160° |
| 2026-05-08 06:29 | 36.40311 | 28.08877 | 31 ft | 3 kts | 161° |
| 2026-05-08 06:29 | 36.40330 | 28.08869 | 31 ft | 3 kts | 163° |
| 2026-05-08 06:30 | 36.40350 | 28.08862 | 32 ft | 3 kts | 163° |
| 2026-05-08 06:30 | 36.40366 | 28.08856 | 30 ft | 3 kts | 159° |
| 2026-05-08 06:30 | 36.40383 | 28.08849 | 30 ft | 3 kts | 133° |
| 2026-05-08 06:30 | 36.40395 | 28.08834 | 30 ft | 3 kts | 104° |
| 2026-05-08 06:31 | 36.40399 | 28.08811 | 33 ft | 3 kts | 88° |
| 2026-05-08 06:31 | 36.40399 | 28.08793 | 33 ft | 1 kts | 85° |
| 2026-05-08 06:33 | 36.40400 | 28.08805 | 33 ft | 9 kts | 85° |
| 2026-05-08 06:33 | 36.40405 | 28.08909 | 33 ft | 10 kts | 90° |
| 2026-05-08 06:33 | 36.40407 | 28.09024 | 33 ft | 16 kts | 82° |
| 2026-05-08 06:34 | 36.40441 | 28.09170 | 32 ft | 18 kts | 71° |
| 2026-05-08 06:34 | 36.40485 | 28.09318 | 34 ft | 18 kts | 65° |
| 2026-05-08 06:34 | 36.40575 | 28.09423 | 34 ft | 18 kts | 41° |
| 2026-05-08 06:34 | 36.40636 | 28.09582 | 34 ft | 21 kts | 70° |
| 2026-05-08 06:35 | 36.40689 | 28.09761 | 32 ft | 24 kts | 70° |
| 2026-05-08 06:35 | 36.40750 | 28.09965 | 29 ft | 25 kts | 70° |
| 2026-05-08 06:35 | 36.40812 | 28.10174 | 27 ft | 27 kts | 70° |
| 2026-05-08 06:35 | 36.40864 | 28.10352 | 31 ft | 19 kts | 70° |
| 2026-05-08 06:36 | 36.40944 | 28.10421 | 30 ft | 10 kts | 343° |
| 2026-05-08 06:36 | 36.40948 | 28.10419 | 30 ft | 0 kts | 339° |
| 2026-05-08 06:36 | 36.40980 | 28.10385 | 30 ft | 15 kts | 312° |
| 2026-05-08 06:36 | 36.41019 | 28.10276 | 31 ft | 10 kts | 263° |
| 2026-05-08 06:37 | 36.41014 | 28.10260 | 30 ft | 7 kts | 252° |
| 2026-05-08 06:37 | 36.40893 | 28.09830 | 31 ft | 97 kts | 250° |
| 2026-05-08 06:37 | 36.40569 | 28.08739 | 37 ft | 168 kts | 249° |
| 2026-05-08 06:37 | 36.40110 | 28.07213 | 329 ft | 199 kts | 251° |
| 2026-05-08 06:38 | 36.39677 | 28.05539 | 1145 ft | 205 kts | 255° |
| 2026-05-08 06:38 | 36.39392 | 28.03893 | 2379 ft | 185 kts | 261° |
| 2026-05-08 06:38 | 36.39245 | 28.02296 | 3279 ft | 187 kts | 265° |
| 2026-05-08 06:38 | 36.39201 | 28.00646 | 3963 ft | 197 kts | 271° |
| 2026-05-08 06:39 | 36.39264 | 27.98863 | 4454 ft | 216 kts | 272° |
| 2026-05-08 06:39 | 36.39281 | 27.96914 | 4868 ft | 235 kts | 269° |
| 2026-05-08 06:39 | 36.39190 | 27.94792 | 5186 ft | 257 kts | 265° |
| 2026-05-08 06:39 | 36.39007 | 27.92534 | 5545 ft | 273 kts | 264° |
| 2026-05-08 06:40 | 36.38779 | 27.90175 | 6192 ft | 277 kts | 263° |
| 2026-05-08 06:40 | 36.38539 | 27.87783 | 6885 ft | 279 kts | 263° |
| 2026-05-08 06:40 | 36.38339 | 27.85382 | 7595 ft | 280 kts | 269° |
| 2026-05-08 06:40 | 36.38362 | 27.82994 | 8278 ft | 281 kts | 272° |
| 2026-05-08 06:41 | 36.38404 | 27.80566 | 9005 ft | 282 kts | 272° |
| 2026-05-08 06:41 | 36.38441 | 27.78125 | 9742 ft | 284 kts | 272° |
| 2026-05-08 06:41 | 36.38473 | 27.75670 | 10405 ft | 287 kts | 272° |
| 2026-05-08 06:41 | 36.38526 | 27.73104 | 10621 ft | 306 kts | 275° |
| 2026-05-08 06:42 | 36.38826 | 27.70398 | 10791 ft | 325 kts | 280° |
| 2026-05-08 06:42 | 36.39194 | 27.67612 | 11192 ft | 334 kts | 280° |
| 2026-05-08 06:42 | 36.39564 | 27.64745 | 11826 ft | 336 kts | 280° |
| 2026-05-08 06:42 | 36.39930 | 27.61855 | 12456 ft | 339 kts | 280° |
| 2026-05-08 06:43 | 36.40295 | 27.58950 | 13081 ft | 341 kts | 279° |
| 2026-05-08 06:43 | 36.40661 | 27.56026 | 13697 ft | 344 kts | 279° |
| 2026-05-08 06:43 | 36.41023 | 27.53122 | 14284 ft | 346 kts | 279° |
| 2026-05-08 06:43 | 36.41392 | 27.50163 | 14875 ft | 347 kts | 279° |
| 2026-05-08 06:44 | 36.41762 | 27.47191 | 15445 ft | 349 kts | 279° |
| 2026-05-08 06:44 | 36.42134 | 27.44193 | 16017 ft | 351 kts | 279° |
| 2026-05-08 06:44 | 36.42506 | 27.41190 | 16585 ft | 352 kts | 279° |
| 2026-05-08 06:44 | 36.42880 | 27.38168 | 17155 ft | 355 kts | 279° |
| 2026-05-08 06:45 | 36.43254 | 27.35131 | 17716 ft | 357 kts | 279° |
| 2026-05-08 06:45 | 36.43626 | 27.32072 | 18246 ft | 360 kts | 279° |
| 2026-05-08 06:45 | 36.44004 | 27.28990 | 18787 ft | 361 kts | 279° |
| 2026-05-08 06:45 | 36.44384 | 27.25909 | 19338 ft | 361 kts | 279° |
| 2026-05-08 06:46 | 36.44758 | 27.22863 | 19852 ft | 362 kts | 279° |
| 2026-05-08 06:46 | 36.45138 | 27.19759 | 20382 ft | 363 kts | 279° |
| 2026-05-08 06:46 | 36.45517 | 27.16648 | 20923 ft | 364 kts | 279° |
| 2026-05-08 06:46 | 36.45895 | 27.13534 | 21449 ft | 365 kts | 279° |
| 2026-05-08 06:47 | 36.46275 | 27.10406 | 21997 ft | 366 kts | 279° |
| 2026-05-08 06:47 | 36.46654 | 27.07272 | 22540 ft | 367 kts | 280° |
| 2026-05-08 06:47 | 36.47034 | 27.04133 | 23091 ft | 368 kts | 280° |
| 2026-05-08 06:47 | 36.47418 | 27.00984 | 23630 ft | 369 kts | 280° |
| 2026-05-08 06:48 | 36.47805 | 26.97816 | 24100 ft | 371 kts | 280° |
| 2026-05-08 06:48 | 36.48188 | 26.94680 | 24532 ft | 373 kts | 280° |
| 2026-05-08 06:48 | 36.48577 | 26.91480 | 24954 ft | 375 kts | 280° |
| 2026-05-08 06:48 | 36.48968 | 26.88254 | 25388 ft | 376 kts | 280° |
| 2026-05-08 06:49 | 36.49349 | 26.85063 | 25813 ft | 378 kts | 280° |
| 2026-05-08 06:49 | 36.49734 | 26.81817 | 26230 ft | 380 kts | 280° |
| 2026-05-08 06:49 | 36.50121 | 26.78543 | 26641 ft | 382 kts | 280° |
| 2026-05-08 06:49 | 36.50510 | 26.75254 | 27048 ft | 384 kts | 280° |
| 2026-05-08 06:50 | 36.50899 | 26.71956 | 27476 ft | 386 kts | 280° |
| 2026-05-08 06:50 | 36.51284 | 26.68684 | 27866 ft | 388 kts | 280° |
| 2026-05-08 06:50 | 36.51675 | 26.65352 | 28263 ft | 390 kts | 280° |
| 2026-05-08 06:50 | 36.52067 | 26.62009 | 28655 ft | 392 kts | 280° |
| 2026-05-08 06:51 | 36.52522 | 26.58666 | 29010 ft | 393 kts | 285° |
| 2026-05-08 06:51 | 36.53430 | 26.55466 | 29382 ft | 394 kts | 295° |
| 2026-05-08 06:51 | 36.54836 | 26.52533 | 29757 ft | 397 kts | 305° |
| 2026-05-08 06:51 | 36.56692 | 26.49972 | 30124 ft | 402 kts | 315° |
| 2026-05-08 06:52 | 36.58949 | 26.47877 | 30457 ft | 409 kts | 324° |
| 2026-05-08 06:52 | 36.61519 | 26.46294 | 30841 ft | 413 kts | 330° |
| 2026-05-08 06:52 | 36.64136 | 26.44801 | 31188 ft | 414 kts | 330° |
| 2026-05-08 06:52 | 36.66722 | 26.43303 | 31552 ft | 415 kts | 329° |
| 2026-05-08 06:53 | 36.69351 | 26.41766 | 31908 ft | 416 kts | 329° |
| 2026-05-08 06:53 | 36.71981 | 26.40223 | 32244 ft | 417 kts | 329° |
| 2026-05-08 06:53 | 36.74617 | 26.38675 | 32594 ft | 418 kts | 329° |
| 2026-05-08 06:53 | 36.77224 | 26.37142 | 32860 ft | 419 kts | 329° |
| 2026-05-08 06:54 | 36.79869 | 26.35586 | 33095 ft | 421 kts | 328° |
| 2026-05-08 06:54 | 36.82527 | 26.34022 | 33324 ft | 422 kts | 328° |
| 2026-05-08 06:54 | 36.85190 | 26.32455 | 33529 ft | 423 kts | 328° |
| 2026-05-08 06:54 | 36.87856 | 26.30884 | 33722 ft | 423 kts | 328° |
| 2026-05-08 06:55 | 36.90521 | 26.29313 | 33951 ft | 423 kts | 328° |
| 2026-05-08 06:55 | 36.93152 | 26.27762 | 34179 ft | 422 kts | 328° |
| 2026-05-08 06:55 | 36.95812 | 26.26192 | 34393 ft | 421 kts | 328° |
| 2026-05-08 06:55 | 36.98466 | 26.24624 | 34602 ft | 420 kts | 328° |
| 2026-05-08 06:56 | 37.01100 | 26.23042 | 34798 ft | 419 kts | 328° |
| 2026-05-08 06:56 | 37.03719 | 26.21440 | 35010 ft | 418 kts | 327° |
| 2026-05-08 06:56 | 37.06331 | 26.19836 | 35202 ft | 418 kts | 327° |
| 2026-05-08 06:56 | 37.08061 | 26.18775 | 35336 ft | 417 kts | 327° |
| 2026-05-08 06:57 | 37.11518 | 26.16658 | 35583 ft | 416 kts | 327° |
| 2026-05-08 06:57 | 37.14123 | 26.15064 | 35787 ft | 416 kts | 327° |
| 2026-05-08 06:57 | 37.16725 | 26.13472 | 35984 ft | 415 kts | 327° |
| 2026-05-08 06:57 | 37.18444 | 26.12419 | 36105 ft | 415 kts | 327° |
| 2026-05-08 06:58 | 37.21040 | 26.10829 | 36298 ft | 414 kts | 327° |
| 2026-05-08 06:58 | 37.23640 | 26.09236 | 36485 ft | 414 kts | 327° |
| 2026-05-08 06:58 | 37.26225 | 26.07650 | 36672 ft | 413 kts | 327° |
| 2026-05-08 06:58 | 37.28776 | 26.06083 | 36865 ft | 412 kts | 327° |
| 2026-05-08 06:59 | 37.31355 | 26.04498 | 37062 ft | 411 kts | 327° |
| 2026-05-08 06:59 | 37.33927 | 26.02916 | 37248 ft | 411 kts | 327° |
| 2026-05-08 06:59 | 37.36502 | 26.01331 | 37426 ft | 410 kts | 327° |
| 2026-05-08 06:59 | 37.39072 | 25.99747 | 37618 ft | 410 kts | 327° |
| 2026-05-08 07:00 | 37.41600 | 25.98189 | 37794 ft | 409 kts | 327° |
| 2026-05-08 07:00 | 37.44154 | 25.96613 | 37973 ft | 408 kts | 327° |
| 2026-05-08 07:00 | 37.46709 | 25.95035 | 38151 ft | 408 kts | 327° |
| 2026-05-08 07:00 | 37.49263 | 25.93457 | 38160 ft | 407 kts | 327° |
| 2026-05-08 07:01 | 37.54318 | 25.90330 | 38151 ft | 407 kts | 327° |
| 2026-05-08 07:01 | 37.59495 | 25.87354 | 38149 ft | 412 kts | 332° |
| 2026-05-08 07:02 | 37.65025 | 25.85198 | 38153 ft | 416 kts | 336° |
| 2026-05-08 07:02 | 37.70572 | 25.83123 | 38153 ft | 416 kts | 336° |
| 2026-05-08 07:03 | 37.76128 | 25.81036 | 38147 ft | 416 kts | 336° |
| 2026-05-08 07:03 | 37.81666 | 25.78961 | 38151 ft | 417 kts | 336° |
| 2026-05-08 07:04 | 37.87243 | 25.76871 | 38150 ft | 417 kts | 336° |
| 2026-05-08 07:04 | 37.92821 | 25.74776 | 38153 ft | 417 kts | 336° |
| 2026-05-08 07:05 | 37.98368 | 25.72690 | 38161 ft | 418 kts | 335° |
| 2026-05-08 07:05 | 38.03949 | 25.70588 | 38162 ft | 418 kts | 335° |
| 2026-05-08 07:06 | 38.09506 | 25.68491 | 38154 ft | 418 kts | 335° |
| 2026-05-08 07:06 | 38.15111 | 25.66373 | 38153 ft | 418 kts | 335° |
| 2026-05-08 07:07 | 38.20700 | 25.64257 | 38147 ft | 419 kts | 335° |
| 2026-05-08 07:07 | 38.26257 | 25.62150 | 38144 ft | 419 kts | 335° |
| 2026-05-08 07:08 | 38.31861 | 25.60022 | 38142 ft | 419 kts | 335° |
| 2026-05-08 07:08 | 38.37433 | 25.57902 | 38143 ft | 419 kts | 335° |
| 2026-05-08 07:09 | 38.43009 | 25.55777 | 38146 ft | 419 kts | 335° |
| 2026-05-08 07:09 | 38.48628 | 25.53633 | 38141 ft | 419 kts | 335° |
| 2026-05-08 07:10 | 38.54187 | 25.51509 | 38127 ft | 419 kts | 335° |
| 2026-05-08 07:10 | 38.59785 | 25.49366 | 38119 ft | 419 kts | 335° |
| 2026-05-08 07:11 | 38.65382 | 25.47219 | 38129 ft | 419 kts | 335° |
| 2026-05-08 07:11 | 38.70954 | 25.45079 | 38135 ft | 419 kts | 335° |
| 2026-05-08 07:12 | 38.76559 | 25.42922 | 38128 ft | 420 kts | 334° |
| 2026-05-08 07:12 | 38.82137 | 25.40773 | 38133 ft | 420 kts | 334° |
| 2026-05-08 07:13 | 38.87748 | 25.38607 | 38131 ft | 420 kts | 334° |
| 2026-05-08 07:13 | 38.93360 | 25.36438 | 38123 ft | 420 kts | 334° |
| 2026-05-08 07:14 | 38.98971 | 25.34265 | 38123 ft | 421 kts | 334° |
| 2026-05-08 07:14 | 39.04550 | 25.32101 | 38123 ft | 421 kts | 334° |
| 2026-05-08 07:15 | 39.10175 | 25.29911 | 38119 ft | 421 kts | 334° |
| 2026-05-08 07:15 | 39.15758 | 25.27738 | 38118 ft | 422 kts | 334° |
| 2026-05-08 07:16 | 39.21396 | 25.25544 | 38121 ft | 422 kts | 334° |
| 2026-05-08 07:16 | 39.27036 | 25.23342 | 38121 ft | 423 kts | 334° |
| 2026-05-08 07:17 | 39.32666 | 25.21140 | 38111 ft | 423 kts | 334° |
| 2026-05-08 07:17 | 39.38275 | 25.18942 | 38112 ft | 424 kts | 334° |
| 2026-05-08 07:18 | 39.43944 | 25.16717 | 38113 ft | 425 kts | 334° |
| 2026-05-08 07:18 | 39.49579 | 25.14502 | 38112 ft | 426 kts | 333° |
| 2026-05-08 07:19 | 39.55252 | 25.12268 | 38108 ft | 426 kts | 333° |
| 2026-05-08 07:19 | 39.60719 | 25.09508 | 38110 ft | 416 kts | 325° |
| 2026-05-08 07:20 | 39.65757 | 25.05959 | 38107 ft | 414 kts | 322° |
| 2026-05-08 07:20 | 39.70828 | 25.02344 | 38103 ft | 415 kts | 322° |
| 2026-05-08 07:21 | 39.75904 | 24.98719 | 38111 ft | 416 kts | 322° |
| 2026-05-08 07:21 | 39.80953 | 24.95096 | 38111 ft | 417 kts | 322° |
| 2026-05-08 07:22 | 39.86037 | 24.91438 | 38113 ft | 417 kts | 322° |
| 2026-05-08 07:22 | 39.91131 | 24.87767 | 38106 ft | 418 kts | 322° |
| 2026-05-08 07:23 | 39.96205 | 24.84104 | 38123 ft | 419 kts | 322° |
| 2026-05-08 07:23 | 40.01327 | 24.80400 | 38099 ft | 420 kts | 322° |
| 2026-05-08 07:24 | 40.06415 | 24.76715 | 38099 ft | 421 kts | 322° |
| 2026-05-08 07:24 | 40.11553 | 24.72986 | 38111 ft | 422 kts | 322° |
| 2026-05-08 07:25 | 40.16707 | 24.69240 | 38111 ft | 423 kts | 322° |
| 2026-05-08 07:26 | 40.24421 | 24.63621 | 38108 ft | 425 kts | 322° |
| 2026-05-08 07:26 | 40.29596 | 24.59843 | 38115 ft | 426 kts | 322° |
| 2026-05-08 07:27 | 40.34757 | 24.56068 | 38112 ft | 427 kts | 322° |
| 2026-05-08 07:27 | 40.39957 | 24.52258 | 38118 ft | 428 kts | 322° |
| 2026-05-08 07:28 | 40.45142 | 24.48453 | 38116 ft | 429 kts | 322° |
| 2026-05-08 07:28 | 40.50358 | 24.44618 | 38116 ft | 430 kts | 322° |
| 2026-05-08 07:29 | 40.55593 | 24.40762 | 38112 ft | 431 kts | 322° |
| 2026-05-08 07:29 | 40.60841 | 24.36889 | 38109 ft | 432 kts | 322° |
| 2026-05-08 07:30 | 40.66068 | 24.33025 | 38112 ft | 433 kts | 322° |
| 2026-05-08 07:30 | 40.71337 | 24.29122 | 38116 ft | 434 kts | 323° |
| 2026-05-08 07:31 | 40.76586 | 24.25228 | 38116 ft | 435 kts | 323° |
| 2026-05-08 07:31 | 40.81878 | 24.21291 | 38118 ft | 436 kts | 323° |
| 2026-05-08 07:32 | 40.87177 | 24.17346 | 38119 ft | 437 kts | 323° |
| 2026-05-08 07:32 | 40.92473 | 24.13394 | 38126 ft | 437 kts | 323° |
| 2026-05-08 07:33 | 40.97746 | 24.09451 | 38121 ft | 438 kts | 323° |
| 2026-05-08 07:33 | 41.03077 | 24.05459 | 38120 ft | 439 kts | 323° |
| 2026-05-08 07:34 | 41.08373 | 24.01487 | 38120 ft | 440 kts | 323° |
| 2026-05-08 07:34 | 41.13717 | 23.97469 | 38126 ft | 441 kts | 323° |
| 2026-05-08 07:35 | 41.19075 | 23.93435 | 38127 ft | 442 kts | 323° |
| 2026-05-08 07:35 | 41.24402 | 23.89416 | 38132 ft | 443 kts | 323° |
| 2026-05-08 07:36 | 41.29764 | 23.85359 | 38121 ft | 441 kts | 323° |
| 2026-05-08 07:36 | 41.35134 | 23.81308 | 38124 ft | 444 kts | 324° |
| 2026-05-08 07:37 | 41.40874 | 23.78141 | 38120 ft | 455 kts | 336° |
| 2026-05-08 07:37 | 41.47174 | 23.76468 | 38116 ft | 467 kts | 347° |
| 2026-05-08 07:38 | 41.53657 | 23.75581 | 38130 ft | 467 kts | 346° |
| 2026-05-08 07:38 | 41.60133 | 23.74645 | 38128 ft | 468 kts | 347° |
| 2026-05-08 07:39 | 41.66582 | 23.73719 | 38128 ft | 469 kts | 347° |
| 2026-05-08 07:39 | 41.73085 | 23.72789 | 38120 ft | 468 kts | 347° |
| 2026-05-08 07:39 | 41.76332 | 23.72316 | 38249 ft | 469 kts | 347° |
| 2026-05-08 07:40 | 41.79583 | 23.71851 | 38441 ft | 469 kts | 347° |
| 2026-05-08 07:40 | 41.82824 | 23.71393 | 38642 ft | 468 kts | 347° |
| 2026-05-08 07:40 | 41.86062 | 23.70931 | 38803 ft | 468 kts | 347° |
| 2026-05-08 07:40 | 41.89259 | 23.70475 | 38966 ft | 467 kts | 347° |
| 2026-05-08 07:41 | 41.92500 | 23.70011 | 39109 ft | 467 kts | 347° |
| 2026-05-08 07:41 | 41.95737 | 23.69547 | 39233 ft | 467 kts | 347° |
| 2026-05-08 07:41 | 41.98972 | 23.69082 | 39368 ft | 466 kts | 347° |
| 2026-05-08 07:41 | 42.02196 | 23.68615 | 39483 ft | 466 kts | 347° |
| 2026-05-08 07:42 | 42.05429 | 23.68149 | 39565 ft | 467 kts | 347° |
| 2026-05-08 07:42 | 42.10797 | 23.67375 | 39729 ft | 467 kts | 347° |
| 2026-05-08 07:43 | 42.17274 | 23.66440 | 39827 ft | 467 kts | 347° |
| 2026-05-08 07:43 | 42.20464 | 23.65976 | 39961 ft | 467 kts | 347° |
| 2026-05-08 07:43 | 42.23711 | 23.65503 | 40077 ft | 467 kts | 348° |
| 2026-05-08 07:44 | 42.30181 | 23.64534 | 40114 ft | 464 kts | 345° |
| 2026-05-08 07:44 | 42.36469 | 23.62960 | 40097 ft | 462 kts | 343° |
| 2026-05-08 07:45 | 42.42798 | 23.61368 | 40107 ft | 462 kts | 343° |
| 2026-05-08 07:45 | 42.49131 | 23.59773 | 40099 ft | 463 kts | 343° |
| 2026-05-08 07:46 | 42.55432 | 23.58178 | 40100 ft | 462 kts | 343° |
| 2026-05-08 07:46 | 42.61768 | 23.56567 | 40095 ft | 462 kts | 343° |
| 2026-05-08 07:47 | 42.68054 | 23.54965 | 40101 ft | 462 kts | 343° |
| 2026-05-08 07:47 | 42.74386 | 23.53349 | 40099 ft | 462 kts | 343° |
| 2026-05-08 07:48 | 42.80719 | 23.51729 | 40101 ft | 463 kts | 343° |
| 2026-05-08 07:48 | 42.87069 | 23.50104 | 40101 ft | 463 kts | 343° |
| 2026-05-08 07:49 | 42.93364 | 23.48483 | 40095 ft | 463 kts | 343° |
| 2026-05-08 07:49 | 42.99706 | 23.46853 | 40087 ft | 462 kts | 343° |
| 2026-05-08 07:50 | 43.06037 | 23.45217 | 40085 ft | 463 kts | 343° |
| 2026-05-08 07:50 | 43.12337 | 23.43589 | 40071 ft | 462 kts | 343° |
| 2026-05-08 07:51 | 43.18659 | 23.41953 | 40070 ft | 462 kts | 343° |
| 2026-05-08 07:51 | 43.24985 | 23.40311 | 40069 ft | 462 kts | 343° |
| 2026-05-08 07:52 | 43.31281 | 23.38674 | 40069 ft | 462 kts | 343° |
| 2026-05-08 07:52 | 43.37600 | 23.37027 | 40067 ft | 462 kts | 343° |
| 2026-05-08 07:53 | 43.43935 | 23.35372 | 40069 ft | 463 kts | 343° |
| 2026-05-08 07:53 | 43.50259 | 23.33717 | 40073 ft | 463 kts | 343° |
| 2026-05-08 07:54 | 43.56582 | 23.32058 | 40072 ft | 463 kts | 343° |
| 2026-05-08 07:54 | 43.62874 | 23.30404 | 40071 ft | 463 kts | 343° |
| 2026-05-08 07:55 | 43.69208 | 23.28736 | 40069 ft | 462 kts | 343° |
| 2026-05-08 07:55 | 43.75539 | 23.27065 | 40068 ft | 463 kts | 343° |
| 2026-05-08 07:56 | 43.81872 | 23.25389 | 40067 ft | 463 kts | 343° |
| 2026-05-08 07:56 | 43.88038 | 23.23182 | 40063 ft | 459 kts | 338° |
| 2026-05-08 07:57 | 43.94216 | 23.20819 | 40067 ft | 459 kts | 339° |
| 2026-05-08 07:57 | 44.00355 | 23.18475 | 40068 ft | 460 kts | 339° |
| 2026-05-08 07:58 | 44.06537 | 23.16098 | 40062 ft | 460 kts | 339° |
| 2026-05-08 07:58 | 44.12721 | 23.13712 | 40056 ft | 460 kts | 339° |
| 2026-05-08 07:59 | 44.18866 | 23.11337 | 40056 ft | 460 kts | 339° |
| 2026-05-08 07:59 | 44.25054 | 23.08940 | 40066 ft | 461 kts | 339° |
| 2026-05-08 08:00 | 44.31217 | 23.06546 | 40073 ft | 461 kts | 339° |
| 2026-05-08 08:00 | 44.37413 | 23.04135 | 40076 ft | 461 kts | 339° |
| 2026-05-08 08:01 | 44.43566 | 23.01735 | 40063 ft | 461 kts | 339° |
| 2026-05-08 08:01 | 44.49730 | 22.99326 | 40063 ft | 461 kts | 339° |
| 2026-05-08 08:02 | 44.55922 | 22.96901 | 40058 ft | 462 kts | 339° |
| 2026-05-08 08:02 | 44.62133 | 22.94460 | 40066 ft | 462 kts | 339° |
| 2026-05-08 08:03 | 44.68325 | 22.92023 | 40070 ft | 462 kts | 339° |
| 2026-05-08 08:03 | 44.74490 | 22.89593 | 40068 ft | 462 kts | 339° |
| 2026-05-08 08:04 | 44.80703 | 22.87137 | 40066 ft | 462 kts | 339° |
| 2026-05-08 08:04 | 44.86861 | 22.84698 | 40066 ft | 462 kts | 339° |
| 2026-05-08 08:05 | 44.93068 | 22.82234 | 40063 ft | 462 kts | 339° |
| 2026-05-08 08:05 | 44.99260 | 22.79770 | 40058 ft | 462 kts | 339° |
| 2026-05-08 08:06 | 45.05426 | 22.77310 | 40061 ft | 462 kts | 339° |
| 2026-05-08 08:06 | 45.11637 | 22.74828 | 40057 ft | 463 kts | 339° |
| 2026-05-08 08:07 | 45.17809 | 22.72353 | 40063 ft | 463 kts | 339° |
| 2026-05-08 08:07 | 45.24031 | 22.69852 | 40063 ft | 465 kts | 339° |
| 2026-05-08 08:08 | 45.30233 | 22.67355 | 40061 ft | 465 kts | 339° |
| 2026-05-08 08:08 | 45.36484 | 22.64834 | 40063 ft | 466 kts | 339° |
| 2026-05-08 08:09 | 45.42735 | 22.62308 | 40067 ft | 467 kts | 339° |
| 2026-05-08 08:09 | 45.48965 | 22.59785 | 40067 ft | 467 kts | 339° |
| 2026-05-08 08:10 | 45.55234 | 22.57240 | 40065 ft | 468 kts | 339° |
| 2026-05-08 08:10 | 45.61469 | 22.54702 | 40068 ft | 468 kts | 339° |
| 2026-05-08 08:11 | 45.67731 | 22.52145 | 40055 ft | 468 kts | 339° |
| 2026-05-08 08:11 | 45.74010 | 22.49578 | 40045 ft | 468 kts | 339° |
| 2026-05-08 08:12 | 45.80249 | 22.47020 | 40060 ft | 468 kts | 339° |
| 2026-05-08 08:12 | 45.86532 | 22.44437 | 40059 ft | 469 kts | 339° |
| 2026-05-08 08:13 | 45.92786 | 22.41862 | 40060 ft | 470 kts | 339° |
| 2026-05-08 08:13 | 45.99078 | 22.39265 | 40060 ft | 470 kts | 339° |
| 2026-05-08 08:14 | 46.05385 | 22.36655 | 40064 ft | 470 kts | 339° |
| 2026-05-08 08:14 | 46.11644 | 22.34057 | 40062 ft | 471 kts | 339° |
| 2026-05-08 08:15 | 46.17959 | 22.31431 | 40068 ft | 471 kts | 339° |
| 2026-05-08 08:15 | 46.24272 | 22.28801 | 40073 ft | 472 kts | 339° |
| 2026-05-08 08:16 | 46.30539 | 22.26182 | 40073 ft | 472 kts | 339° |
| 2026-05-08 08:16 | 46.36863 | 22.23533 | 40069 ft | 472 kts | 339° |
| 2026-05-08 08:17 | 46.43183 | 22.20881 | 40072 ft | 472 kts | 339° |
| 2026-05-08 08:17 | 46.49458 | 22.18217 | 40076 ft | 472 kts | 339° |
| 2026-05-08 08:18 | 46.55753 | 22.15404 | 40079 ft | 472 kts | 338° |
| 2026-05-08 08:18 | 46.62024 | 22.12596 | 40077 ft | 473 kts | 338° |
| 2026-05-08 08:19 | 46.68316 | 22.09790 | 40077 ft | 472 kts | 338° |
| 2026-05-08 08:19 | 46.74612 | 22.06976 | 40072 ft | 472 kts | 338° |
| 2026-05-08 08:20 | 46.80863 | 22.04177 | 40074 ft | 473 kts | 338° |
| 2026-05-08 08:20 | 46.87164 | 22.01349 | 40074 ft | 473 kts | 338° |
| 2026-05-08 08:21 | 46.93465 | 21.98513 | 40074 ft | 473 kts | 338° |